sensor_id;sensor_type;location;lat;lon;timestamp;P1;durP1;ratioP1;P2;durP2;ratioP2
81930;SDS011;71395;43.488;1.472;2024-03-22T00:01:41;15.32;;;7.00;;
81930;SDS011;71395;43.488;1.472;2024-03-22T00:04:07;17.65;;;7.32;;
81930;SDS011;71395;43.488;1.472;2024-03-22T00:06:32;17.83;;;7.38;;
81930;SDS011;71395;43.488;1.472;2024-03-22T00:08:58;19.55;;;7.65;;
81930;SDS011;71395;43.488;1.472;2024-03-22T00:11:23;15.00;;;6.65;;
81930;SDS011;71395;43.488;1.472;2024-03-22T00:13:50;14.90;;;6.68;;
81930;SDS011;71395;43.488;1.472;2024-03-22T00:16:16;16.38;;;6.97;;
81930;SDS011;71395;43.488;1.472;2024-03-22T00:18:41;14.57;;;6.32;;
81930;SDS011;71395;43.488;1.472;2024-03-22T00:21:07;14.98;;;6.50;;
81930;SDS011;71395;43.488;1.472;2024-03-22T00:23:33;15.43;;;6.45;;
81930;SDS011;71395;43.488;1.472;2024-03-22T00:25:59;17.10;;;6.75;;
81930;SDS011;71395;43.488;1.472;2024-03-22T00:28:25;16.17;;;6.82;;
81930;SDS011;71395;43.488;1.472;2024-03-22T00:30:50;15.85;;;6.78;;
81930;SDS011;71395;43.488;1.472;2024-03-22T00:33:16;13.63;;;6.88;;
81930;SDS011;71395;43.488;1.472;2024-03-22T00:35:42;13.52;;;7.10;;
81930;SDS011;71395;43.488;1.472;2024-03-22T00:38:07;14.98;;;7.15;;
81930;SDS011;71395;43.488;1.472;2024-03-22T00:40:33;19.90;;;7.63;;
81930;SDS011;71395;43.488;1.472;2024-03-22T00:42:58;15.52;;;7.05;;
81930;SDS011;71395;43.488;1.472;2024-03-22T00:45:24;15.95;;;6.85;;
81930;SDS011;71395;43.488;1.472;2024-03-22T00:47:50;20.63;;;6.47;;
81930;SDS011;71395;43.488;1.472;2024-03-22T00:50:16;14.13;;;6.63;;
81930;SDS011;71395;43.488;1.472;2024-03-22T00:52:41;19.02;;;7.28;;
81930;SDS011;71395;43.488;1.472;2024-03-22T00:55:07;13.80;;;6.93;;
81930;SDS011;71395;43.488;1.472;2024-03-22T00:57:33;14.48;;;7.00;;
81930;SDS011;71395;43.488;1.472;2024-03-22T00:59:58;17.02;;;7.25;;
81930;SDS011;71395;43.488;1.472;2024-03-22T01:02:24;14.60;;;6.55;;
81930;SDS011;71395;43.488;1.472;2024-03-22T01:04:50;13.65;;;6.70;;
81930;SDS011;71395;43.488;1.472;2024-03-22T01:07:16;16.17;;;6.32;;
81930;SDS011;71395;43.488;1.472;2024-03-22T01:09:41;16.50;;;6.82;;
81930;SDS011;71395;43.488;1.472;2024-03-22T01:12:09;13.45;;;6.32;;
81930;SDS011;71395;43.488;1.472;2024-03-22T01:14:35;13.68;;;6.45;;
81930;SDS011;71395;43.488;1.472;2024-03-22T01:17:01;13.93;;;6.88;;
81930;SDS011;71395;43.488;1.472;2024-03-22T01:19:26;15.40;;;6.93;;
81930;SDS011;71395;43.488;1.472;2024-03-22T01:21:52;13.85;;;6.32;;
81930;SDS011;71395;43.488;1.472;2024-03-22T01:24:18;13.70;;;6.75;;
81930;SDS011;71395;43.488;1.472;2024-03-22T01:26:43;16.63;;;7.38;;
81930;SDS011;71395;43.488;1.472;2024-03-22T01:29:09;15.80;;;7.35;;
81930;SDS011;71395;43.488;1.472;2024-03-22T01:31:45;15.27;;;7.70;;
81930;SDS011;71395;43.488;1.472;2024-03-22T01:36:57;15.35;;;7.32;;
81930;SDS011;71395;43.488;1.472;2024-03-22T01:39:23;16.05;;;7.60;;
81930;SDS011;71395;43.488;1.472;2024-03-22T01:41:49;15.35;;;6.75;;
81930;SDS011;71395;43.488;1.472;2024-03-22T01:44:15;17.35;;;7.18;;
81930;SDS011;71395;43.488;1.472;2024-03-22T01:46:42;16.58;;;7.43;;
81930;SDS011;71395;43.488;1.472;2024-03-22T01:49:09;20.02;;;7.95;;
81930;SDS011;71395;43.488;1.472;2024-03-22T01:51:38;19.77;;;7.95;;
81930;SDS011;71395;43.488;1.472;2024-03-22T01:54:05;16.75;;;7.15;;
81930;SDS011;71395;43.488;1.472;2024-03-22T01:56:35;18.92;;;7.20;;
81930;SDS011;71395;43.488;1.472;2024-03-22T01:59:02;14.82;;;6.85;;
81930;SDS011;71395;43.488;1.472;2024-03-22T02:01:29;13.30;;;6.68;;
81930;SDS011;71395;43.488;1.472;2024-03-22T02:03:55;14.73;;;6.80;;
81930;SDS011;71395;43.488;1.472;2024-03-22T02:06:20;10.85;;;6.07;;
81930;SDS011;71395;43.488;1.472;2024-03-22T02:08:46;10.85;;;6.05;;
81930;SDS011;71395;43.488;1.472;2024-03-22T02:11:11;12.30;;;5.78;;
81930;SDS011;71395;43.488;1.472;2024-03-22T02:13:37;15.35;;;6.30;;
81930;SDS011;71395;43.488;1.472;2024-03-22T02:16:03;14.23;;;6.00;;
81930;SDS011;71395;43.488;1.472;2024-03-22T02:18:29;13.35;;;6.55;;
81930;SDS011;71395;43.488;1.472;2024-03-22T02:20:56;14.40;;;6.45;;
81930;SDS011;71395;43.488;1.472;2024-03-22T02:23:26;13.02;;;5.70;;
81930;SDS011;71395;43.488;1.472;2024-03-22T02:25:57;16.70;;;6.60;;
81930;SDS011;71395;43.488;1.472;2024-03-22T02:28:23;14.18;;;6.90;;
81930;SDS011;71395;43.488;1.472;2024-03-22T02:30:49;15.77;;;7.05;;
81930;SDS011;71395;43.488;1.472;2024-03-22T02:33:14;17.70;;;7.05;;
81930;SDS011;71395;43.488;1.472;2024-03-22T02:35:40;14.05;;;6.95;;
81930;SDS011;71395;43.488;1.472;2024-03-22T02:38:05;18.02;;;6.28;;
81930;SDS011;71395;43.488;1.472;2024-03-22T02:40:31;14.93;;;6.05;;
81930;SDS011;71395;43.488;1.472;2024-03-22T02:42:57;15.32;;;6.03;;
81930;SDS011;71395;43.488;1.472;2024-03-22T02:45:32;17.15;;;6.70;;
81930;SDS011;71395;43.488;1.472;2024-03-22T02:50:57;13.85;;;6.18;;
81930;SDS011;71395;43.488;1.472;2024-03-22T02:53:23;17.33;;;6.93;;
81930;SDS011;71395;43.488;1.472;2024-03-22T02:55:48;15.23;;;6.88;;
81930;SDS011;71395;43.488;1.472;2024-03-22T02:58:14;17.48;;;6.78;;
81930;SDS011;71395;43.488;1.472;2024-03-22T03:00:40;13.65;;;6.68;;
81930;SDS011;71395;43.488;1.472;2024-03-22T03:03:05;15.10;;;6.85;;
81930;SDS011;71395;43.488;1.472;2024-03-22T03:05:31;16.88;;;6.43;;
81930;SDS011;71395;43.488;1.472;2024-03-22T03:07:57;14.52;;;6.85;;
81930;SDS011;71395;43.488;1.472;2024-03-22T03:13:22;14.32;;;6.18;;
81930;SDS011;71395;43.488;1.472;2024-03-22T03:15:48;16.77;;;6.70;;
81930;SDS011;71395;43.488;1.472;2024-03-22T03:18:13;15.05;;;5.85;;
81930;SDS011;71395;43.488;1.472;2024-03-22T03:20:39;13.00;;;6.07;;
81930;SDS011;71395;43.488;1.472;2024-03-22T03:23:05;14.73;;;6.13;;
81930;SDS011;71395;43.488;1.472;2024-03-22T03:25:46;12.75;;;6.13;;
81930;SDS011;71395;43.488;1.472;2024-03-22T03:28:11;14.40;;;5.65;;
81930;SDS011;71395;43.488;1.472;2024-03-22T03:30:38;14.70;;;5.80;;
81930;SDS011;71395;43.488;1.472;2024-03-22T03:33:04;13.32;;;6.18;;
81930;SDS011;71395;43.488;1.472;2024-03-22T03:35:30;14.32;;;6.38;;
81930;SDS011;71395;43.488;1.472;2024-03-22T03:37:56;11.13;;;6.05;;
81930;SDS011;71395;43.488;1.472;2024-03-22T03:40:21;16.67;;;6.60;;
81930;SDS011;71395;43.488;1.472;2024-03-22T03:42:49;14.23;;;6.70;;
81930;SDS011;71395;43.488;1.472;2024-03-22T03:45:15;12.73;;;6.30;;
81930;SDS011;71395;43.488;1.472;2024-03-22T03:47:41;16.42;;;5.35;;
81930;SDS011;71395;43.488;1.472;2024-03-22T03:50:07;14.15;;;5.72;;
81930;SDS011;71395;43.488;1.472;2024-03-22T03:52:33;14.02;;;5.53;;
81930;SDS011;71395;43.488;1.472;2024-03-22T03:54:58;15.93;;;6.53;;
81930;SDS011;71395;43.488;1.472;2024-03-22T03:57:24;12.48;;;6.15;;
81930;SDS011;71395;43.488;1.472;2024-03-22T03:59:50;14.98;;;6.57;;
81930;SDS011;71395;43.488;1.472;2024-03-22T04:02:15;17.33;;;6.18;;
81930;SDS011;71395;43.488;1.472;2024-03-22T04:04:41;16.88;;;6.55;;
81930;SDS011;71395;43.488;1.472;2024-03-22T04:07:06;11.52;;;6.05;;
81930;SDS011;71395;43.488;1.472;2024-03-22T04:09:32;17.52;;;6.53;;
81930;SDS011;71395;43.488;1.472;2024-03-22T04:11:59;14.52;;;6.90;;
81930;SDS011;71395;43.488;1.472;2024-03-22T04:14:25;16.05;;;7.35;;
81930;SDS011;71395;43.488;1.472;2024-03-22T04:16:51;15.88;;;6.57;;
81930;SDS011;71395;43.488;1.472;2024-03-22T04:19:16;15.13;;;6.60;;
81930;SDS011;71395;43.488;1.472;2024-03-22T04:21:42;14.50;;;6.22;;
81930;SDS011;71395;43.488;1.472;2024-03-22T04:24:08;12.90;;;6.10;;
81930;SDS011;71395;43.488;1.472;2024-03-22T04:26:33;14.50;;;6.72;;
81930;SDS011;71395;43.488;1.472;2024-03-22T04:28:59;15.95;;;6.15;;
81930;SDS011;71395;43.488;1.472;2024-03-22T04:31:24;13.43;;;6.10;;
81930;SDS011;71395;43.488;1.472;2024-03-22T04:33:50;10.65;;;5.65;;
81930;SDS011;71395;43.488;1.472;2024-03-22T04:36:16;14.93;;;6.70;;
81930;SDS011;71395;43.488;1.472;2024-03-22T04:38:41;13.95;;;6.65;;
81930;SDS011;71395;43.488;1.472;2024-03-22T04:41:07;14.88;;;6.88;;
81930;SDS011;71395;43.488;1.472;2024-03-22T04:43:32;19.30;;;6.55;;
81930;SDS011;71395;43.488;1.472;2024-03-22T04:45:58;14.43;;;6.45;;
81930;SDS011;71395;43.488;1.472;2024-03-22T04:48:24;14.88;;;6.80;;
81930;SDS011;71395;43.488;1.472;2024-03-22T04:50:51;12.68;;;6.38;;
81930;SDS011;71395;43.488;1.472;2024-03-22T04:53:18;13.30;;;6.10;;
81930;SDS011;71395;43.488;1.472;2024-03-22T04:55:47;12.52;;;6.25;;
81930;SDS011;71395;43.488;1.472;2024-03-22T04:58:20;15.80;;;6.68;;
81930;SDS011;71395;43.488;1.472;2024-03-22T05:00:47;15.43;;;6.57;;
81930;SDS011;71395;43.488;1.472;2024-03-22T05:03:13;13.57;;;7.05;;
81930;SDS011;71395;43.488;1.472;2024-03-22T05:05:57;18.88;;;6.95;;
81930;SDS011;71395;43.488;1.472;2024-03-22T05:08:23;17.42;;;6.35;;
81930;SDS011;71395;43.488;1.472;2024-03-22T05:10:49;12.20;;;6.28;;
81930;SDS011;71395;43.488;1.472;2024-03-22T05:13:15;16.90;;;6.22;;
81930;SDS011;71395;43.488;1.472;2024-03-22T05:15:40;10.43;;;5.72;;
81930;SDS011;71395;43.488;1.472;2024-03-22T05:18:06;15.18;;;6.47;;
81930;SDS011;71395;43.488;1.472;2024-03-22T05:20:32;17.02;;;6.53;;
81930;SDS011;71395;43.488;1.472;2024-03-22T05:22:57;13.75;;;6.35;;
81930;SDS011;71395;43.488;1.472;2024-03-22T05:25:23;14.02;;;5.93;;
81930;SDS011;71395;43.488;1.472;2024-03-22T05:27:48;12.13;;;5.55;;
81930;SDS011;71395;43.488;1.472;2024-03-22T05:30:14;11.40;;;6.28;;
81930;SDS011;71395;43.488;1.472;2024-03-22T05:32:43;13.05;;;5.80;;
81930;SDS011;71395;43.488;1.472;2024-03-22T05:35:08;14.43;;;5.90;;
81930;SDS011;71395;43.488;1.472;2024-03-22T05:37:34;13.38;;;5.90;;
81930;SDS011;71395;43.488;1.472;2024-03-22T05:40:00;17.25;;;5.97;;
81930;SDS011;71395;43.488;1.472;2024-03-22T05:42:28;11.45;;;5.88;;
81930;SDS011;71395;43.488;1.472;2024-03-22T05:44:54;14.30;;;5.60;;
81930;SDS011;71395;43.488;1.472;2024-03-22T05:47:20;12.95;;;6.13;;
81930;SDS011;71395;43.488;1.472;2024-03-22T05:49:46;18.15;;;5.80;;
81930;SDS011;71395;43.488;1.472;2024-03-22T05:52:12;13.95;;;5.53;;
81930;SDS011;71395;43.488;1.472;2024-03-22T05:54:37;16.33;;;6.00;;
81930;SDS011;71395;43.488;1.472;2024-03-22T05:57:03;13.60;;;5.90;;
81930;SDS011;71395;43.488;1.472;2024-03-22T05:59:30;12.68;;;5.70;;
81930;SDS011;71395;43.488;1.472;2024-03-22T06:01:56;12.23;;;6.00;;
81930;SDS011;71395;43.488;1.472;2024-03-22T06:04:22;16.45;;;6.80;;
81930;SDS011;71395;43.488;1.472;2024-03-22T06:06:48;15.00;;;6.35;;
81930;SDS011;71395;43.488;1.472;2024-03-22T06:09:14;13.75;;;5.22;;
81930;SDS011;71395;43.488;1.472;2024-03-22T06:11:49;14.50;;;6.50;;
81930;SDS011;71395;43.488;1.472;2024-03-22T06:14:17;18.38;;;6.25;;
81930;SDS011;71395;43.488;1.472;2024-03-22T06:16:42;16.25;;;6.63;;
81930;SDS011;71395;43.488;1.472;2024-03-22T06:19:08;12.52;;;6.55;;
81930;SDS011;71395;43.488;1.472;2024-03-22T06:21:34;18.73;;;6.47;;
81930;SDS011;71395;43.488;1.472;2024-03-22T06:23:59;17.73;;;7.18;;
81930;SDS011;71395;43.488;1.472;2024-03-22T06:26:25;14.88;;;7.20;;
81930;SDS011;71395;43.488;1.472;2024-03-22T06:28:50;17.30;;;7.60;;
81930;SDS011;71395;43.488;1.472;2024-03-22T06:31:16;19.08;;;7.20;;
81930;SDS011;71395;43.488;1.472;2024-03-22T06:33:42;18.92;;;7.00;;
81930;SDS011;71395;43.488;1.472;2024-03-22T06:36:08;15.23;;;6.78;;
81930;SDS011;71395;43.488;1.472;2024-03-22T06:38:33;13.40;;;6.50;;
81930;SDS011;71395;43.488;1.472;2024-03-22T06:40:59;14.98;;;7.00;;
81930;SDS011;71395;43.488;1.472;2024-03-22T06:43:25;14.48;;;6.32;;
81930;SDS011;71395;43.488;1.472;2024-03-22T06:45:51;14.23;;;6.82;;
81930;SDS011;71395;43.488;1.472;2024-03-22T06:48:17;17.17;;;7.82;;
81930;SDS011;71395;43.488;1.472;2024-03-22T06:50:43;17.35;;;8.80;;
81930;SDS011;71395;43.488;1.472;2024-03-22T06:53:08;19.15;;;8.40;;
81930;SDS011;71395;43.488;1.472;2024-03-22T06:55:37;16.33;;;8.63;;
81930;SDS011;71395;43.488;1.472;2024-03-22T06:58:03;19.60;;;8.60;;
81930;SDS011;71395;43.488;1.472;2024-03-22T07:00:29;18.70;;;8.65;;
81930;SDS011;71395;43.488;1.472;2024-03-22T07:02:55;15.73;;;9.02;;
81930;SDS011;71395;43.488;1.472;2024-03-22T07:05:21;20.25;;;10.48;;
81930;SDS011;71395;43.488;1.472;2024-03-22T07:07:47;20.63;;;10.18;;
81930;SDS011;71395;43.488;1.472;2024-03-22T07:10:15;25.90;;;10.20;;
81930;SDS011;71395;43.488;1.472;2024-03-22T07:12:40;21.55;;;9.57;;
81930;SDS011;71395;43.488;1.472;2024-03-22T07:15:06;18.25;;;9.75;;
81930;SDS011;71395;43.488;1.472;2024-03-22T07:17:32;23.05;;;9.68;;
81930;SDS011;71395;43.488;1.472;2024-03-22T07:19:58;19.15;;;9.60;;
81930;SDS011;71395;43.488;1.472;2024-03-22T07:22:23;18.33;;;9.65;;
81930;SDS011;71395;43.488;1.472;2024-03-22T07:24:49;18.95;;;9.95;;
81930;SDS011;71395;43.488;1.472;2024-03-22T07:27:16;21.10;;;9.63;;
81930;SDS011;71395;43.488;1.472;2024-03-22T07:29:42;24.63;;;10.05;;
81930;SDS011;71395;43.488;1.472;2024-03-22T07:32:07;29.67;;;15.90;;
81930;SDS011;71395;43.488;1.472;2024-03-22T07:34:33;25.85;;;13.27;;
81930;SDS011;71395;43.488;1.472;2024-03-22T07:36:59;23.30;;;10.32;;
81930;SDS011;71395;43.488;1.472;2024-03-22T07:39:24;22.52;;;10.27;;
81930;SDS011;71395;43.488;1.472;2024-03-22T07:41:50;20.02;;;9.05;;
81930;SDS011;71395;43.488;1.472;2024-03-22T07:44:16;18.90;;;9.43;;
81930;SDS011;71395;43.488;1.472;2024-03-22T07:46:51;20.75;;;9.48;;
81930;SDS011;71395;43.488;1.472;2024-03-22T07:49:17;18.70;;;9.82;;
81930;SDS011;71395;43.488;1.472;2024-03-22T07:51:43;20.05;;;8.80;;
81930;SDS011;71395;43.488;1.472;2024-03-22T07:54:09;20.10;;;9.63;;
81930;SDS011;71395;43.488;1.472;2024-03-22T07:56:34;19.67;;;9.55;;
81930;SDS011;71395;43.488;1.472;2024-03-22T07:59:00;23.77;;;9.52;;
81930;SDS011;71395;43.488;1.472;2024-03-22T08:01:26;22.73;;;9.70;;
81930;SDS011;71395;43.488;1.472;2024-03-22T08:03:52;21.77;;;10.02;;
81930;SDS011;71395;43.488;1.472;2024-03-22T08:06:18;23.20;;;10.05;;
81930;SDS011;71395;43.488;1.472;2024-03-22T08:08:44;20.52;;;10.23;;
81930;SDS011;71395;43.488;1.472;2024-03-22T08:11:10;21.45;;;9.70;;
81930;SDS011;71395;43.488;1.472;2024-03-22T08:13:36;21.65;;;9.77;;
81930;SDS011;71395;43.488;1.472;2024-03-22T08:16:01;19.95;;;9.00;;
81930;SDS011;71395;43.488;1.472;2024-03-22T08:18:27;21.50;;;9.80;;
81930;SDS011;71395;43.488;1.472;2024-03-22T08:20:53;21.13;;;9.32;;
81930;SDS011;71395;43.488;1.472;2024-03-22T08:23:18;20.20;;;9.57;;
81930;SDS011;71395;43.488;1.472;2024-03-22T08:25:45;17.02;;;8.77;;
81930;SDS011;71395;43.488;1.472;2024-03-22T08:28:11;20.25;;;9.50;;
81930;SDS011;71395;43.488;1.472;2024-03-22T08:30:38;20.25;;;9.13;;
81930;SDS011;71395;43.488;1.472;2024-03-22T08:33:04;20.08;;;8.70;;
81930;SDS011;71395;43.488;1.472;2024-03-22T08:35:30;18.70;;;9.38;;
81930;SDS011;71395;43.488;1.472;2024-03-22T08:37:56;24.13;;;9.00;;
81930;SDS011;71395;43.488;1.472;2024-03-22T08:40:22;16.23;;;9.18;;
81930;SDS011;71395;43.488;1.472;2024-03-22T08:42:48;19.20;;;10.02;;
81930;SDS011;71395;43.488;1.472;2024-03-22T08:45:14;20.40;;;9.90;;
81930;SDS011;71395;43.488;1.472;2024-03-22T08:47:41;21.70;;;8.85;;
81930;SDS011;71395;43.488;1.472;2024-03-22T08:50:08;17.63;;;10.05;;
81930;SDS011;71395;43.488;1.472;2024-03-22T08:52:34;20.30;;;9.43;;
81930;SDS011;71395;43.488;1.472;2024-03-22T08:55:00;17.02;;;9.32;;
81930;SDS011;71395;43.488;1.472;2024-03-22T08:57:26;14.90;;;8.25;;
81930;SDS011;71395;43.488;1.472;2024-03-22T08:59:52;25.27;;;9.07;;
81930;SDS011;71395;43.488;1.472;2024-03-22T09:02:17;19.08;;;9.38;;
81930;SDS011;71395;43.488;1.472;2024-03-22T09:04:43;17.08;;;8.73;;
81930;SDS011;71395;43.488;1.472;2024-03-22T09:07:08;21.50;;;8.73;;
81930;SDS011;71395;43.488;1.472;2024-03-22T09:09:34;21.88;;;8.35;;
81930;SDS011;71395;43.488;1.472;2024-03-22T09:12:00;17.30;;;8.27;;
81930;SDS011;71395;43.488;1.472;2024-03-22T09:14:25;17.42;;;8.85;;
81930;SDS011;71395;43.488;1.472;2024-03-22T09:16:51;16.98;;;8.52;;
81930;SDS011;71395;43.488;1.472;2024-03-22T09:19:17;16.58;;;8.25;;
81930;SDS011;71395;43.488;1.472;2024-03-22T09:21:43;15.35;;;7.75;;
81930;SDS011;71395;43.488;1.472;2024-03-22T09:24:08;15.77;;;7.80;;
81930;SDS011;71395;43.488;1.472;2024-03-22T09:26:34;21.25;;;8.52;;
81930;SDS011;71395;43.488;1.472;2024-03-22T09:29:00;17.10;;;7.95;;
81930;SDS011;71395;43.488;1.472;2024-03-22T09:31:26;17.33;;;7.38;;
81930;SDS011;71395;43.488;1.472;2024-03-22T09:33:52;17.33;;;7.45;;
81930;SDS011;71395;43.488;1.472;2024-03-22T09:36:18;16.58;;;7.63;;
81930;SDS011;71395;43.488;1.472;2024-03-22T09:38:43;13.70;;;7.38;;
81930;SDS011;71395;43.488;1.472;2024-03-22T09:41:09;19.38;;;7.30;;
81930;SDS011;71395;43.488;1.472;2024-03-22T09:43:35;16.92;;;7.10;;
81930;SDS011;71395;43.488;1.472;2024-03-22T09:46:03;18.48;;;7.35;;
81930;SDS011;71395;43.488;1.472;2024-03-22T09:48:30;17.45;;;7.53;;
81930;SDS011;71395;43.488;1.472;2024-03-22T09:50:58;17.08;;;6.60;;
81930;SDS011;71395;43.488;1.472;2024-03-22T09:53:24;15.77;;;6.53;;
81930;SDS011;71395;43.488;1.472;2024-03-22T09:55:52;17.30;;;6.78;;
81930;SDS011;71395;43.488;1.472;2024-03-22T09:58:23;16.30;;;6.75;;
81930;SDS011;71395;43.488;1.472;2024-03-22T10:00:48;15.30;;;6.75;;
81930;SDS011;71395;43.488;1.472;2024-03-22T10:03:14;15.02;;;6.38;;
81930;SDS011;71395;43.488;1.472;2024-03-22T10:05:40;16.02;;;6.72;;
81930;SDS011;71395;43.488;1.472;2024-03-22T10:08:06;15.20;;;7.13;;
81930;SDS011;71395;43.488;1.472;2024-03-22T10:13:54;15.73;;;7.03;;
81930;SDS011;71395;43.488;1.472;2024-03-22T10:16:23;13.45;;;5.88;;
81930;SDS011;71395;43.488;1.472;2024-03-22T10:18:49;14.00;;;6.13;;
81930;SDS011;71395;43.488;1.472;2024-03-22T10:21:18;20.08;;;6.78;;
81930;SDS011;71395;43.488;1.472;2024-03-22T10:23:44;16.35;;;7.00;;
81930;SDS011;71395;43.488;1.472;2024-03-22T10:26:12;13.50;;;6.30;;
81930;SDS011;71395;43.488;1.472;2024-03-22T10:28:43;14.70;;;6.40;;
81930;SDS011;71395;43.488;1.472;2024-03-22T10:31:10;14.23;;;6.88;;
81930;SDS011;71395;43.488;1.472;2024-03-22T10:33:37;14.82;;;6.43;;
81930;SDS011;71395;43.488;1.472;2024-03-22T10:36:03;12.43;;;6.38;;
81930;SDS011;71395;43.488;1.472;2024-03-22T10:38:29;12.98;;;6.13;;
81930;SDS011;71395;43.488;1.472;2024-03-22T10:40:57;16.50;;;6.32;;
81930;SDS011;71395;43.488;1.472;2024-03-22T10:43:25;15.68;;;6.50;;
81930;SDS011;71395;43.488;1.472;2024-03-22T10:45:51;13.15;;;5.82;;
81930;SDS011;71395;43.488;1.472;2024-03-22T10:48:20;14.18;;;5.97;;
81930;SDS011;71395;43.488;1.472;2024-03-22T10:50:48;16.25;;;6.68;;
81930;SDS011;71395;43.488;1.472;2024-03-22T10:53:18;15.95;;;6.35;;
81930;SDS011;71395;43.488;1.472;2024-03-22T10:55:49;14.73;;;5.88;;
81930;SDS011;71395;43.488;1.472;2024-03-22T10:58:24;15.65;;;6.10;;
81930;SDS011;71395;43.488;1.472;2024-03-22T11:00:54;14.73;;;6.00;;
81930;SDS011;71395;43.488;1.472;2024-03-22T11:03:21;12.43;;;5.60;;
81930;SDS011;71395;43.488;1.472;2024-03-22T11:05:49;13.45;;;5.65;;
81930;SDS011;71395;43.488;1.472;2024-03-22T11:08:25;13.18;;;6.22;;
81930;SDS011;71395;43.488;1.472;2024-03-22T11:10:52;13.88;;;5.95;;
81930;SDS011;71395;43.488;1.472;2024-03-22T11:13:21;14.45;;;6.18;;
81930;SDS011;71395;43.488;1.472;2024-03-22T11:15:50;11.23;;;5.90;;
81930;SDS011;71395;43.488;1.472;2024-03-22T11:18:16;12.90;;;5.72;;
81930;SDS011;71395;43.488;1.472;2024-03-22T11:20:43;14.32;;;6.03;;
81930;SDS011;71395;43.488;1.472;2024-03-22T11:23:10;14.45;;;6.38;;
81930;SDS011;71395;43.488;1.472;2024-03-22T11:25:36;14.60;;;5.78;;
81930;SDS011;71395;43.488;1.472;2024-03-22T11:28:02;11.15;;;5.60;;
81930;SDS011;71395;43.488;1.472;2024-03-22T11:30:31;12.43;;;5.60;;
81930;SDS011;71395;43.488;1.472;2024-03-22T11:33:00;14.13;;;5.75;;
81930;SDS011;71395;43.488;1.472;2024-03-22T11:35:27;17.15;;;5.15;;
81930;SDS011;71395;43.488;1.472;2024-03-22T11:37:52;14.52;;;4.93;;
81930;SDS011;71395;43.488;1.472;2024-03-22T11:40:18;12.27;;;4.97;;
81930;SDS011;71395;43.488;1.472;2024-03-22T11:42:51;13.88;;;4.93;;
81930;SDS011;71395;43.488;1.472;2024-03-22T11:45:19;12.85;;;4.65;;
81930;SDS011;71395;43.488;1.472;2024-03-22T11:47:47;13.45;;;5.57;;
81930;SDS011;71395;43.488;1.472;2024-03-22T11:50:13;12.73;;;5.20;;
81930;SDS011;71395;43.488;1.472;2024-03-22T11:52:42;14.00;;;5.15;;
81930;SDS011;71395;43.488;1.472;2024-03-22T11:55:12;15.35;;;5.38;;
81930;SDS011;71395;43.488;1.472;2024-03-22T11:57:39;10.68;;;5.25;;
81930;SDS011;71395;43.488;1.472;2024-03-22T12:00:05;13.50;;;5.20;;
81930;SDS011;71395;43.488;1.472;2024-03-22T12:02:37;11.68;;;4.45;;
81930;SDS011;71395;43.488;1.472;2024-03-22T12:05:03;11.85;;;4.25;;
81930;SDS011;71395;43.488;1.472;2024-03-22T12:07:36;11.40;;;4.53;;
81930;SDS011;71395;43.488;1.472;2024-03-22T12:10:02;10.55;;;4.72;;
81930;SDS011;71395;43.488;1.472;2024-03-22T12:12:28;14.43;;;5.15;;
81930;SDS011;71395;43.488;1.472;2024-03-22T12:14:55;12.43;;;4.68;;
81930;SDS011;71395;43.488;1.472;2024-03-22T12:17:21;9.77;;;4.35;;
81930;SDS011;71395;43.488;1.472;2024-03-22T12:19:46;10.77;;;4.20;;
81930;SDS011;71395;43.488;1.472;2024-03-22T12:22:12;8.48;;;4.10;;
81930;SDS011;71395;43.488;1.472;2024-03-22T12:24:38;8.52;;;3.95;;
81930;SDS011;71395;43.488;1.472;2024-03-22T12:27:04;12.90;;;4.57;;
81930;SDS011;71395;43.488;1.472;2024-03-22T12:29:33;12.45;;;3.85;;
81930;SDS011;71395;43.488;1.472;2024-03-22T12:31:59;10.50;;;4.07;;
81930;SDS011;71395;43.488;1.472;2024-03-22T12:34:27;13.95;;;4.10;;
81930;SDS011;71395;43.488;1.472;2024-03-22T12:36:54;10.70;;;3.80;;
81930;SDS011;71395;43.488;1.472;2024-03-22T12:39:20;10.07;;;4.05;;
81930;SDS011;71395;43.488;1.472;2024-03-22T12:41:45;10.77;;;3.83;;
81930;SDS011;71395;43.488;1.472;2024-03-22T12:44:11;9.90;;;4.57;;
81930;SDS011;71395;43.488;1.472;2024-03-22T12:46:37;8.70;;;3.63;;
81930;SDS011;71395;43.488;1.472;2024-03-22T12:49:03;10.50;;;3.60;;
81930;SDS011;71395;43.488;1.472;2024-03-22T12:51:29;6.88;;;3.45;;
81930;SDS011;71395;43.488;1.472;2024-03-22T12:53:55;9.02;;;3.60;;
81930;SDS011;71395;43.488;1.472;2024-03-22T12:56:20;11.73;;;3.97;;
81930;SDS011;71395;43.488;1.472;2024-03-22T12:58:47;11.02;;;3.85;;
81930;SDS011;71395;43.488;1.472;2024-03-22T13:01:13;14.20;;;4.30;;
81930;SDS011;71395;43.488;1.472;2024-03-22T13:03:39;10.60;;;3.45;;
81930;SDS011;71395;43.488;1.472;2024-03-22T13:06:04;7.30;;;3.42;;
81930;SDS011;71395;43.488;1.472;2024-03-22T13:08:31;13.63;;;3.72;;
81930;SDS011;71395;43.488;1.472;2024-03-22T13:10:57;10.45;;;3.47;;
81930;SDS011;71395;43.488;1.472;2024-03-22T13:13:22;8.68;;;3.60;;
81930;SDS011;71395;43.488;1.472;2024-03-22T13:15:48;11.02;;;3.80;;
81930;SDS011;71395;43.488;1.472;2024-03-22T13:18:14;11.55;;;3.63;;
81930;SDS011;71395;43.488;1.472;2024-03-22T13:20:40;11.23;;;3.70;;
81930;SDS011;71395;43.488;1.472;2024-03-22T13:23:06;7.32;;;3.42;;
81930;SDS011;71395;43.488;1.472;2024-03-22T13:25:34;12.65;;;3.30;;
81930;SDS011;71395;43.488;1.472;2024-03-22T13:28:02;13.27;;;2.90;;
81930;SDS011;71395;43.488;1.472;2024-03-22T13:30:30;10.00;;;2.53;;
81930;SDS011;71395;43.488;1.472;2024-03-22T13:32:56;10.85;;;3.00;;
81930;SDS011;71395;43.488;1.472;2024-03-22T13:35:22;8.50;;;2.85;;
81930;SDS011;71395;43.488;1.472;2024-03-22T13:37:47;6.32;;;2.80;;
81930;SDS011;71395;43.488;1.472;2024-03-22T13:40:13;7.45;;;2.83;;
81930;SDS011;71395;43.488;1.472;2024-03-22T13:42:40;7.95;;;3.03;;
81930;SDS011;71395;43.488;1.472;2024-03-22T13:45:05;11.43;;;3.40;;
81930;SDS011;71395;43.488;1.472;2024-03-22T13:47:32;11.73;;;2.90;;
81930;SDS011;71395;43.488;1.472;2024-03-22T13:49:58;15.43;;;3.22;;
81930;SDS011;71395;43.488;1.472;2024-03-22T13:52:23;10.18;;;2.60;;
81930;SDS011;71395;43.488;1.472;2024-03-22T13:54:49;8.88;;;3.15;;
81930;SDS011;71395;43.488;1.472;2024-03-22T13:57:15;10.45;;;3.10;;
81930;SDS011;71395;43.488;1.472;2024-03-22T13:59:41;8.00;;;3.35;;
81930;SDS011;71395;43.488;1.472;2024-03-22T14:02:06;14.10;;;3.22;;
81930;SDS011;71395;43.488;1.472;2024-03-22T14:04:35;10.13;;;3.00;;
81930;SDS011;71395;43.488;1.472;2024-03-22T14:07:01;11.10;;;3.20;;
81930;SDS011;71395;43.488;1.472;2024-03-22T14:09:33;9.18;;;2.90;;
81930;SDS011;71395;43.488;1.472;2024-03-22T14:11:59;8.65;;;3.10;;
81930;SDS011;71395;43.488;1.472;2024-03-22T14:14:25;8.95;;;2.67;;
81930;SDS011;71395;43.488;1.472;2024-03-22T14:16:51;9.15;;;3.25;;
81930;SDS011;71395;43.488;1.472;2024-03-22T14:19:17;15.23;;;3.30;;
81930;SDS011;71395;43.488;1.472;2024-03-22T14:21:44;10.38;;;2.92;;
81930;SDS011;71395;43.488;1.472;2024-03-22T14:24:11;9.88;;;2.90;;
81930;SDS011;71395;43.488;1.472;2024-03-22T14:26:37;8.48;;;3.38;;
81930;SDS011;71395;43.488;1.472;2024-03-22T14:31:33;13.02;;;3.08;;
81930;SDS011;71395;43.488;1.472;2024-03-22T14:33:59;7.75;;;2.95;;
81930;SDS011;71395;43.488;1.472;2024-03-22T14:36:25;10.75;;;3.13;;
81930;SDS011;71395;43.488;1.472;2024-03-22T14:38:50;11.27;;;3.20;;
81930;SDS011;71395;43.488;1.472;2024-03-22T14:41:16;10.98;;;2.65;;
81930;SDS011;71395;43.488;1.472;2024-03-22T14:43:41;8.52;;;2.60;;
81930;SDS011;71395;43.488;1.472;2024-03-22T14:46:07;8.52;;;2.90;;